Yale, Iowa
Current Conditions -  °F | °C
As of 6:55 PM on Saturday 22 Nov 2014 (Local Time) from KPRO Reporting Station
Overcast Overcast  
Wind Chill: 11°   Ceiling: 500
Heat Index: 11°   Visibility: 7mi
Dew Point: 10°   Wind: 10mph
Humidity: 95%   Direction: 180°S
Pressure: 29.65"   Gusts: NA
Location:  41.78°N, 94.36°W
Report Text: KPRO 230055Z AUTO 18009KT 7SM OVC005 11/10 A2965 RMK AO2 T01100103
Loading
Personal Weather Stations






























Interactive Weather Map New forecast layout! Learn more

10-Day Weather Forecast

Advertisements
Track Severe Weather on mobile